createdAt,value
2018-06-03T00:01:30.707Z,20.4
2018-06-03T00:06:26.711Z,20.3
2018-06-03T00:11:22.408Z,20.3
2018-06-03T00:16:18.598Z,20.2
2018-06-03T00:21:14.476Z,20.2
2018-06-03T00:26:10.794Z,20.1
2018-06-03T00:31:07.453Z,20.1
2018-06-03T00:36:03.388Z,20.1
2018-06-03T00:40:59.533Z,20
2018-06-03T00:45:56.024Z,20
2018-06-03T00:50:52.155Z,20
2018-06-03T00:55:48.257Z,20
2018-06-03T01:00:44.442Z,19.9
2018-06-03T01:05:40.424Z,19.9
2018-06-03T01:10:36.540Z,19.8
2018-06-03T01:15:32.714Z,19.8
2018-06-03T01:20:28.582Z,19.7
2018-06-03T01:25:24.649Z,19.7
2018-06-03T01:30:20.790Z,19.7
2018-06-03T01:35:16.525Z,19.6
2018-06-03T01:40:12.427Z,18.9
2018-06-03T01:45:08.514Z,19.6
2018-06-03T01:50:04.658Z,19.5
2018-06-03T01:55:00.802Z,19.3
2018-06-03T01:59:57.010Z,19.5
2018-06-03T02:04:52.944Z,18.3
2018-06-03T02:09:48.802Z,19.4
2018-06-03T02:14:44.483Z,19.3
2018-06-03T02:19:40.781Z,19.3
2018-06-03T02:24:37.027Z,19
2018-06-03T02:29:32.956Z,19.2
2018-06-03T02:34:29.150Z,19.2
2018-06-03T02:39:25.276Z,19.2
2018-06-03T02:44:20.955Z,19.1
2018-06-03T02:49:17.049Z,18.5
2018-06-03T02:54:13.360Z,19
2018-06-03T02:59:09.360Z,19
2018-06-03T03:04:05.420Z,18.4
2018-06-03T03:09:01.185Z,19
2018-06-03T03:13:57.259Z,19
2018-06-03T03:18:53.067Z,19
2018-06-03T03:23:49.058Z,18.3
2018-06-03T03:28:45.207Z,18.9
2018-06-03T03:33:41.083Z,18.3
2018-06-03T03:38:37.179Z,18.3
2018-06-03T03:43:33.301Z,18.9
2018-06-03T03:48:29.111Z,18.2
2018-06-03T03:53:25.293Z,18.2
2018-06-03T03:58:21.429Z,18.8
2018-06-03T04:03:17.333Z,18.8
2018-06-03T04:08:13.422Z,18.9
2018-06-03T04:13:09.747Z,18.9
2018-06-03T04:18:05.636Z,18.8
2018-06-03T04:23:01.791Z,18.9
2018-06-03T04:27:57.751Z,18.3
2018-06-03T04:32:53.926Z,19
2018-06-03T04:37:50.282Z,19
2018-06-03T04:42:46.619Z,19
2018-06-03T04:47:42.798Z,18.5
2018-06-03T04:52:39.019Z,19.2
2018-06-03T04:57:34.996Z,19
2018-06-03T05:02:31.137Z,19.2
2018-06-03T05:07:27.463Z,19.3
2018-06-03T05:12:23.233Z,19.4
2018-06-03T05:17:19.395Z,19.4
2018-06-03T05:22:15.653Z,19.4
2018-06-03T05:27:11.665Z,19.5
2018-06-03T05:32:08.003Z,19.6
2018-06-03T05:37:04.574Z,19.6
2018-06-03T05:42:00.631Z,19.6
2018-06-03T05:46:56.630Z,19.7
2018-06-03T05:51:53.048Z,19.8
2018-06-03T05:56:48.950Z,19.8
2018-06-03T06:01:44.650Z,19.9
2018-06-03T06:06:40.784Z,20
2018-06-03T06:11:37.195Z,20
2018-06-03T06:16:33.189Z,20.1
2018-06-03T06:21:28.984Z,20.1
2018-06-03T06:26:25.120Z,20.2
2018-06-03T06:31:21.015Z,20.2
2018-06-03T06:36:17.186Z,20.3
2018-06-03T06:41:13.165Z,20.3
2018-06-03T06:46:09.181Z,20.4
2018-06-03T06:51:05.229Z,20.5
2018-06-03T06:56:01.245Z,20.6
2018-06-03T07:00:57.251Z,20.4
2018-06-03T07:05:53.304Z,20.7
2018-06-03T07:10:49.686Z,20.8
2018-06-03T07:15:46.061Z,20.8
2018-06-03T07:20:44.634Z,20.9
2018-06-03T07:25:40.978Z,21
2018-06-03T07:30:36.992Z,21.1
2018-06-03T07:35:33.235Z,21.1
2018-06-03T07:40:29.340Z,21.2
2018-06-03T07:45:25.137Z,21.3
2018-06-03T07:50:23.726Z,21.4
2018-06-03T07:55:19.471Z,21.5
2018-06-03T08:00:15.792Z,21.6
2018-06-03T08:05:12.083Z,21.8
2018-06-03T08:10:08.530Z,21.9
2018-06-03T08:15:04.587Z,22
2018-06-03T08:20:01.944Z,22.1
2018-06-03T08:24:56.892Z,21.6
2018-06-03T08:29:53.085Z,22.3
2018-06-03T08:34:49.421Z,22.4
2018-06-03T08:39:45.939Z,22.5
2018-06-03T08:44:42.101Z,22.7
2018-06-03T08:49:38.636Z,22.8
2018-06-03T08:54:34.691Z,23
2018-06-03T08:59:30.935Z,23.1
2018-06-03T09:04:27.178Z,22.7
2018-06-03T09:09:23.240Z,22.8
2018-06-03T09:14:20.206Z,22.9
2018-06-03T09:19:20.557Z,23.1
2018-06-03T09:24:15.373Z,23.9
2018-06-03T09:29:11.541Z,24
2018-06-03T09:34:08.201Z,24.2
2018-06-03T09:39:04.275Z,24.4
2018-06-03T09:44:00.638Z,24.6
2018-06-03T09:48:55.989Z,24.8
2018-06-03T09:53:52.408Z,25
2018-06-03T09:58:48.785Z,25.1
2018-06-03T10:03:44.945Z,25.3
2018-06-03T10:08:41.396Z,25.4
2018-06-03T10:13:37.196Z,25.5
2018-06-03T10:18:33.484Z,25.4
2018-06-03T10:23:29.150Z,25.3
2018-06-03T10:28:25.463Z,25.1
2018-06-03T10:33:21.901Z,25.5
2018-06-03T10:38:18.198Z,25.7
2018-06-03T10:43:14.566Z,25.7
2018-06-03T10:48:10.933Z,25.9
2018-06-03T10:53:07.135Z,25.9
2018-06-03T10:58:03.538Z,25.6
2018-06-03T11:02:59.746Z,25.3
2018-06-03T11:07:55.772Z,25.1
2018-06-03T11:12:51.934Z,24.9
2018-06-03T11:17:50.289Z,23.9
2018-06-03T11:22:45.665Z,24.4
2018-06-03T11:27:41.685Z,24.2
2018-06-03T11:32:37.637Z,24.1
2018-06-03T11:37:33.634Z,24
2018-06-03T11:42:29.823Z,23.3
2018-06-03T11:47:25.469Z,23.8
2018-06-03T11:52:21.323Z,23.7
2018-06-03T11:57:17.432Z,23
2018-06-03T12:02:13.346Z,23.2
2018-06-03T12:07:09.544Z,22.8
2018-06-03T12:12:05.466Z,23.4
2018-06-03T12:17:01.823Z,23
2018-06-03T12:21:57.914Z,23.7
2018-06-03T12:26:54.335Z,23.4
2018-06-03T12:31:50.283Z,23.5
2018-06-03T12:36:46.626Z,23.7
2018-06-03T12:41:42.538Z,24.4
2018-06-03T12:46:38.595Z,24.6
2018-06-03T12:51:34.957Z,24.1
2018-06-03T12:56:30.844Z,24.3
2018-06-03T13:01:26.989Z,24.9
2018-06-03T13:06:23.139Z,25.1
2018-06-03T13:11:19.337Z,25.4
2018-06-03T13:16:15.683Z,25.7
2018-06-03T13:21:12.186Z,25.8
2018-06-03T13:26:08.639Z,25.7
2018-06-03T13:31:04.454Z,25.6
2018-06-03T13:35:59.983Z,25.5
2018-06-03T13:40:56.046Z,25.3
2018-06-03T13:45:52.043Z,25.1
2018-06-03T13:50:48.106Z,24.9
2018-06-03T13:55:43.955Z,24.5
2018-06-03T14:00:40.133Z,24.5
2018-06-03T14:05:36.295Z,24.5
2018-06-03T14:10:32.599Z,24.3
2018-06-03T14:15:28.660Z,24.1
2018-06-03T14:20:24.652Z,24
2018-06-03T14:25:20.927Z,23.2
2018-06-03T14:30:16.732Z,23.6
2018-06-03T14:35:12.944Z,23
2018-06-03T14:40:09.158Z,22.9
2018-06-03T14:45:05.420Z,23.4
2018-06-03T14:50:01.502Z,23.5
2018-06-03T14:54:57.442Z,23.6
2018-06-03T14:59:53.402Z,23.1
2018-06-03T15:04:49.948Z,23.3
2018-06-03T15:09:46.138Z,23.9
2018-06-03T15:14:42.467Z,23.9
2018-06-03T15:19:38.489Z,23.2
2018-06-03T15:24:34.718Z,23.6
2018-06-03T15:29:30.793Z,23.8
2018-06-03T15:34:27.106Z,23.6
2018-06-03T15:39:23.280Z,24.1
2018-06-03T15:44:19.195Z,23.5
2018-06-03T15:49:15.601Z,23.6
2018-06-03T15:54:11.945Z,24.1
2018-06-03T15:59:07.817Z,24.1
2018-06-03T16:04:04.042Z,23.5
2018-06-03T16:09:00.338Z,24.1
2018-06-03T16:13:56.511Z,24.2
2018-06-03T16:18:52.778Z,23.7
2018-06-03T16:23:49.055Z,24.1
2018-06-03T16:28:44.929Z,23.5
2018-06-03T16:33:41.146Z,24
2018-06-03T16:38:37.245Z,23.9
2018-06-03T16:43:33.588Z,23.8
2018-06-03T16:48:29.985Z,23.8
2018-06-03T16:53:26.312Z,23.7
2018-06-03T16:58:22.588Z,23.1
2018-06-03T17:03:18.422Z,23
2018-06-03T17:08:14.502Z,23
2018-06-03T17:13:10.379Z,23.5
2018-06-03T17:18:06.605Z,22.9
2018-06-03T17:23:02.659Z,23.4
2018-06-03T17:27:58.846Z,22.8
2018-06-03T17:32:54.632Z,22.8
2018-06-03T17:37:50.680Z,23.3
2018-06-03T17:42:46.816Z,22.7
2018-06-03T17:47:43.021Z,23.3
2018-06-03T17:52:38.776Z,23
2018-06-03T17:57:34.790Z,23.2
2018-06-03T18:02:30.931Z,23.1
2018-06-03T18:07:26.280Z,23.1
2018-06-03T18:12:21.878Z,23.1
2018-06-03T18:17:17.748Z,23.1
2018-06-03T18:22:13.724Z,22.5
2018-06-03T18:27:09.734Z,23
2018-06-03T18:32:05.588Z,23
2018-06-03T18:37:01.479Z,22.4
2018-06-03T18:41:57.414Z,23
2018-06-03T18:46:53.552Z,22.3
2018-06-03T18:51:49.756Z,22.3
2018-06-03T18:56:45.748Z,22.9
2018-06-03T19:01:41.573Z,22.9
2018-06-03T19:06:37.371Z,22.8
2018-06-03T19:11:33.383Z,22.8
2018-06-03T19:16:29.249Z,22.7
2018-06-03T19:21:25.321Z,22.6
2018-06-03T19:26:20.866Z,22.6
2018-06-03T19:31:16.871Z,22.5
2018-06-03T19:36:13.112Z,22.1
2018-06-03T19:41:09.110Z,22.4
2018-06-03T19:46:05.319Z,22.4
2018-06-03T19:51:01.150Z,22.3
2018-06-03T19:55:56.759Z,22.3
2018-06-03T20:00:53.087Z,22.2
2018-06-03T20:05:49.357Z,22
2018-06-03T20:10:44.993Z,21.5
2018-06-03T20:15:40.449Z,22.1
2018-06-03T20:20:36.514Z,22
2018-06-03T20:25:32.514Z,22
2018-06-03T20:30:28.596Z,22
2018-06-03T20:35:24.525Z,21.9
2018-06-03T20:40:20.336Z,21.9
2018-06-03T20:45:16.162Z,21.9
2018-06-03T20:50:11.658Z,21.8
2018-06-03T20:55:07.874Z,21.8
2018-06-03T21:00:04.637Z,21.2
2018-06-03T21:05:00.815Z,21.7
2018-06-03T21:09:57.194Z,21.1
2018-06-03T21:14:53.186Z,21.7
2018-06-03T21:19:49.406Z,21.7
2018-06-03T21:24:45.592Z,21.6
2018-06-03T21:29:41.679Z,21.6
2018-06-03T21:34:37.429Z,21.5
2018-06-03T21:39:33.453Z,21.5
2018-06-03T21:44:29.477Z,21.5
2018-06-03T21:49:25.713Z,21.5
2018-06-03T21:54:21.715Z,15.7
2018-06-03T21:59:17.662Z,21.4
2018-06-03T22:04:13.861Z,21.4
2018-06-03T22:09:10.012Z,21.4
2018-06-03T22:14:06.143Z,21.3
2018-06-03T22:19:02.281Z,21.3
2018-06-03T22:23:58.435Z,21.2
2018-06-03T22:28:54.427Z,21.2
2018-06-03T22:33:50.488Z,21.2
2018-06-03T22:38:46.552Z,21.2
2018-06-03T22:43:42.629Z,21.1
2018-06-03T22:48:39.083Z,21.1
2018-06-03T22:53:34.988Z,21.1
2018-06-03T22:58:30.956Z,21
2018-06-03T23:03:27.051Z,21
2018-06-03T23:08:23.200Z,20.9
2018-06-03T23:13:19.010Z,20.9
2018-06-03T23:18:14.877Z,20.9
2018-06-03T23:23:10.766Z,20.9
2018-06-03T23:28:06.943Z,20.8
2018-06-03T23:33:02.677Z,20.8
2018-06-03T23:37:58.584Z,20.8
2018-06-03T23:42:54.946Z,20.8
2018-06-03T23:47:51.008Z,20.8
2018-06-03T23:52:47.085Z,20.7
2018-06-03T23:57:43.277Z,20.2
